sensor_id;sensor_type;location;lat;lon;timestamp;pressure;altitude;pressure_sealevel;temperature;humidity
26487;BME280;14425;56.136;40.360;2023-05-16T00:01:47;100278.59;;;15.25;45.27
26487;BME280;14425;56.136;40.360;2023-05-16T00:04:12;100277.59;;;15.20;46.05
26487;BME280;14425;56.136;40.360;2023-05-16T00:06:38;100283.50;;;15.14;46.10
26487;BME280;14425;56.136;40.360;2023-05-16T00:09:03;100275.84;;;14.87;47.10
26487;BME280;14425;56.136;40.360;2023-05-16T00:11:29;100278.28;;;14.82;47.44
26487;BME280;14425;56.136;40.360;2023-05-16T00:13:55;100274.00;;;14.83;47.21
26487;BME280;14425;56.136;40.360;2023-05-16T00:16:20;100272.75;;;14.70;47.30
26487;BME280;14425;56.136;40.360;2023-05-16T00:18:46;100275.47;;;14.73;48.08
26487;BME280;14425;56.136;40.360;2023-05-16T00:21:12;100275.66;;;14.52;48.96
26487;BME280;14425;56.136;40.360;2023-05-16T00:23:38;100280.75;;;14.49;48.82
26487;BME280;14425;56.136;40.360;2023-05-16T00:26:03;100270.13;;;14.39;49.35
26487;BME280;14425;56.136;40.360;2023-05-16T00:28:29;100271.19;;;14.46;48.80
26487;BME280;14425;56.136;40.360;2023-05-16T00:30:55;100280.72;;;14.47;48.71
26487;BME280;14425;56.136;40.360;2023-05-16T00:33:20;100275.22;;;14.65;47.54
26487;BME280;14425;56.136;40.360;2023-05-16T00:35:46;100275.63;;;14.21;49.73
26487;BME280;14425;56.136;40.360;2023-05-16T00:38:11;100277.72;;;14.04;51.14
26487;BME280;14425;56.136;40.360;2023-05-16T00:40:37;100279.66;;;13.84;51.68
26487;BME280;14425;56.136;40.360;2023-05-16T00:43:03;100273.03;;;13.94;51.27
26487;BME280;14425;56.136;40.360;2023-05-16T00:45:28;100281.00;;;14.28;49.73
26487;BME280;14425;56.136;40.360;2023-05-16T00:47:54;100278.09;;;14.17;50.76
26487;BME280;14425;56.136;40.360;2023-05-16T00:50:19;100275.97;;;13.78;51.84
26487;BME280;14425;56.136;40.360;2023-05-16T00:52:45;100277.88;;;14.11;50.06
26487;BME280;14425;56.136;40.360;2023-05-16T00:55:11;100280.03;;;14.24;50.03
26487;BME280;14425;56.136;40.360;2023-05-16T00:57:37;100275.13;;;14.33;49.52
26487;BME280;14425;56.136;40.360;2023-05-16T01:00:04;100278.28;;;13.96;51.34
26487;BME280;14425;56.136;40.360;2023-05-16T01:02:36;100282.34;;;14.15;50.22
26487;BME280;14425;56.136;40.360;2023-05-16T01:05:02;100288.00;;;14.30;49.91
26487;BME280;14425;56.136;40.360;2023-05-16T01:07:34;100286.06;;;14.52;49.35
26487;BME280;14425;56.136;40.360;2023-05-16T01:10:02;100290.28;;;14.48;49.26
26487;BME280;14425;56.136;40.360;2023-05-16T01:15:06;100287.44;;;14.40;48.94
26487;BME280;14425;56.136;40.360;2023-05-16T01:17:42;100289.88;;;14.34;50.03
26487;BME280;14425;56.136;40.360;2023-05-16T01:22:46;100294.97;;;14.60;48.52
26487;BME280;14425;56.136;40.360;2023-05-16T01:25:30;100292.63;;;14.40;49.47
26487;BME280;14425;56.136;40.360;2023-05-16T01:27:57;100295.06;;;14.34;49.55
26487;BME280;14425;56.136;40.360;2023-05-16T01:30:24;100294.81;;;14.55;48.46
26487;BME280;14425;56.136;40.360;2023-05-16T01:32:50;100301.91;;;14.59;48.90
26487;BME280;14425;56.136;40.360;2023-05-16T01:35:16;100297.56;;;14.60;48.77
26487;BME280;14425;56.136;40.360;2023-05-16T01:37:57;100298.31;;;14.56;48.69
26487;BME280;14425;56.136;40.360;2023-05-16T01:40:48;100296.53;;;14.55;49.08
26487;BME280;14425;56.136;40.360;2023-05-16T01:43:20;100293.03;;;14.26;50.14
26487;BME280;14425;56.136;40.360;2023-05-16T01:45:54;100293.53;;;14.41;49.54
26487;BME280;14425;56.136;40.360;2023-05-16T01:48:25;100292.13;;;14.23;50.54
26487;BME280;14425;56.136;40.360;2023-05-16T01:50:54;100288.72;;;14.25;50.60
26487;BME280;14425;56.136;40.360;2023-05-16T01:53:25;100292.47;;;14.34;49.72
26487;BME280;14425;56.136;40.360;2023-05-16T01:55:51;100295.19;;;14.39;49.96
26487;BME280;14425;56.136;40.360;2023-05-16T01:58:22;100295.63;;;14.53;49.35
26487;BME280;14425;56.136;40.360;2023-05-16T02:00:52;100293.50;;;14.68;48.50
26487;BME280;14425;56.136;40.360;2023-05-16T02:03:17;100297.00;;;14.70;48.66
26487;BME280;14425;56.136;40.360;2023-05-16T02:05:43;100298.78;;;14.71;49.29
26487;BME280;14425;56.136;40.360;2023-05-16T02:08:09;100296.53;;;14.55;49.47
26487;BME280;14425;56.136;40.360;2023-05-16T02:10:34;100299.50;;;14.38;50.00
26487;BME280;14425;56.136;40.360;2023-05-16T02:13:00;100310.31;;;14.54;49.29
26487;BME280;14425;56.136;40.360;2023-05-16T02:15:26;100310.66;;;14.63;49.07
26487;BME280;14425;56.136;40.360;2023-05-16T02:17:51;100306.47;;;14.39;49.77
26487;BME280;14425;56.136;40.360;2023-05-16T02:20:17;100311.38;;;14.03;51.05
26487;BME280;14425;56.136;40.360;2023-05-16T02:22:43;100308.41;;;14.47;50.18
26487;BME280;14425;56.136;40.360;2023-05-16T02:25:12;100311.72;;;14.70;49.18
26487;BME280;14425;56.136;40.360;2023-05-16T02:27:38;100307.63;;;14.78;49.29
26487;BME280;14425;56.136;40.360;2023-05-16T02:30:04;100312.09;;;14.84;48.41
26487;BME280;14425;56.136;40.360;2023-05-16T02:32:31;100311.75;;;14.71;49.39
26487;BME280;14425;56.136;40.360;2023-05-16T02:34:58;100309.59;;;14.58;50.12
26487;BME280;14425;56.136;40.360;2023-05-16T02:37:23;100308.63;;;14.83;48.84
26487;BME280;14425;56.136;40.360;2023-05-16T02:39:48;100308.41;;;15.06;48.26
26487;BME280;14425;56.136;40.360;2023-05-16T02:42:14;100306.88;;;15.14;48.33
26487;BME280;14425;56.136;40.360;2023-05-16T02:44:39;100302.84;;;15.25;47.72
26487;BME280;14425;56.136;40.360;2023-05-16T02:47:05;100303.66;;;15.23;48.20
26487;BME280;14425;56.136;40.360;2023-05-16T02:49:30;100305.50;;;15.27;47.83
26487;BME280;14425;56.136;40.360;2023-05-16T02:51:56;100303.78;;;14.95;48.93
26487;BME280;14425;56.136;40.360;2023-05-16T02:54:22;100301.06;;;15.23;48.21
26487;BME280;14425;56.136;40.360;2023-05-16T02:56:47;100304.91;;;15.37;47.83
26487;BME280;14425;56.136;40.360;2023-05-16T02:59:13;100308.28;;;15.33;48.20
26487;BME280;14425;56.136;40.360;2023-05-16T03:01:38;100305.75;;;15.36;48.30
26487;BME280;14425;56.136;40.360;2023-05-16T03:04:04;100306.22;;;15.55;47.16
26487;BME280;14425;56.136;40.360;2023-05-16T03:06:30;100308.53;;;15.42;47.95
26487;BME280;14425;56.136;40.360;2023-05-16T03:08:56;100316.06;;;15.33;49.18
26487;BME280;14425;56.136;40.360;2023-05-16T03:11:21;100309.78;;;15.58;47.93
26487;BME280;14425;56.136;40.360;2023-05-16T03:13:50;100301.13;;;15.58;48.22
26487;BME280;14425;56.136;40.360;2023-05-16T03:16:15;100302.09;;;15.63;48.22
26487;BME280;14425;56.136;40.360;2023-05-16T03:18:43;100306.50;;;15.65;48.79
26487;BME280;14425;56.136;40.360;2023-05-16T03:21:09;100309.34;;;15.75;48.46
26487;BME280;14425;56.136;40.360;2023-05-16T03:23:34;100305.94;;;15.44;50.46
26487;BME280;14425;56.136;40.360;2023-05-16T03:26:00;100317.38;;;15.50;50.12
26487;BME280;14425;56.136;40.360;2023-05-16T03:28:26;100315.31;;;15.72;49.38
26487;BME280;14425;56.136;40.360;2023-05-16T03:30:51;100318.28;;;15.84;48.75
26487;BME280;14425;56.136;40.360;2023-05-16T03:33:17;100321.31;;;15.68;49.84
26487;BME280;14425;56.136;40.360;2023-05-16T03:35:43;100321.66;;;15.82;49.41
26487;BME280;14425;56.136;40.360;2023-05-16T03:38:10;100326.81;;;15.79;49.69
26487;BME280;14425;56.136;40.360;2023-05-16T03:40:35;100322.56;;;15.82;48.31
26487;BME280;14425;56.136;40.360;2023-05-16T03:43:01;100320.84;;;15.49;49.74
26487;BME280;14425;56.136;40.360;2023-05-16T03:45:28;100334.59;;;14.83;51.70
26487;BME280;14425;56.136;40.360;2023-05-16T03:47:53;100331.47;;;14.65;53.13
26487;BME280;14425;56.136;40.360;2023-05-16T03:50:19;100336.69;;;14.39;54.21
26487;BME280;14425;56.136;40.360;2023-05-16T03:52:45;100332.66;;;14.49;52.94
26487;BME280;14425;56.136;40.360;2023-05-16T03:55:10;100334.66;;;14.57;53.12
26487;BME280;14425;56.136;40.360;2023-05-16T03:57:40;100333.41;;;14.72;52.42
26487;BME280;14425;56.136;40.360;2023-05-16T04:00:07;100335.66;;;14.90;52.03
26487;BME280;14425;56.136;40.360;2023-05-16T04:02:33;100333.53;;;14.76;53.05
26487;BME280;14425;56.136;40.360;2023-05-16T04:04:59;100334.19;;;14.69;53.46
26487;BME280;14425;56.136;40.360;2023-05-16T04:07:24;100328.59;;;14.28;54.91
26487;BME280;14425;56.136;40.360;2023-05-16T04:09:50;100334.78;;;13.79;56.50
26487;BME280;14425;56.136;40.360;2023-05-16T04:12:16;100335.25;;;13.67;57.03
26487;BME280;14425;56.136;40.360;2023-05-16T04:14:41;100337.53;;;14.38;55.28
26487;BME280;14425;56.136;40.360;2023-05-16T04:17:07;100344.53;;;14.68;52.84
26487;BME280;14425;56.136;40.360;2023-05-16T04:19:32;100338.16;;;14.31;54.16
26487;BME280;14425;56.136;40.360;2023-05-16T04:21:58;100339.03;;;14.58;54.33
26487;BME280;14425;56.136;40.360;2023-05-16T04:24:23;100345.22;;;14.62;52.69
26487;BME280;14425;56.136;40.360;2023-05-16T04:26:51;100341.72;;;14.90;53.06
26487;BME280;14425;56.136;40.360;2023-05-16T04:29:17;100340.03;;;14.92;52.41
26487;BME280;14425;56.136;40.360;2023-05-16T04:31:42;100346.91;;;14.60;53.17
26487;BME280;14425;56.136;40.360;2023-05-16T04:34:07;100344.78;;;14.77;52.31
26487;BME280;14425;56.136;40.360;2023-05-16T04:36:33;100342.59;;;15.21;50.35
26487;BME280;14425;56.136;40.360;2023-05-16T04:39:00;100346.44;;;15.36;49.37
26487;BME280;14425;56.136;40.360;2023-05-16T04:41:25;100344.97;;;15.13;50.25
26487;BME280;14425;56.136;40.360;2023-05-16T04:43:51;100337.13;;;15.44;49.24
26487;BME280;14425;56.136;40.360;2023-05-16T04:46:17;100344.78;;;15.07;47.81
26487;BME280;14425;56.136;40.360;2023-05-16T04:48:42;100348.00;;;14.99;48.87
26487;BME280;14425;56.136;40.360;2023-05-16T04:51:08;100338.72;;;15.72;47.60
26487;BME280;14425;56.136;40.360;2023-05-16T04:53:33;100336.84;;;16.36;45.32
26487;BME280;14425;56.136;40.360;2023-05-16T04:55:59;100332.00;;;16.15;44.26
26487;BME280;14425;56.136;40.360;2023-05-16T04:58:25;100338.22;;;15.52;45.16
26487;BME280;14425;56.136;40.360;2023-05-16T05:00:51;100345.25;;;15.23;45.47
26487;BME280;14425;56.136;40.360;2023-05-16T05:03:17;100339.41;;;15.65;44.84
26487;BME280;14425;56.136;40.360;2023-05-16T05:05:42;100320.69;;;16.51;44.64
26487;BME280;14425;56.136;40.360;2023-05-16T05:08:08;100322.25;;;16.43;43.11
26487;BME280;14425;56.136;40.360;2023-05-16T05:10:34;100328.25;;;16.39;43.72
26487;BME280;14425;56.136;40.360;2023-05-16T05:13:00;100327.88;;;16.63;42.18
26487;BME280;14425;56.136;40.360;2023-05-16T05:15:26;100330.22;;;16.89;42.37
26487;BME280;14425;56.136;40.360;2023-05-16T05:17:52;100329.91;;;16.76;41.30
26487;BME280;14425;56.136;40.360;2023-05-16T05:20:18;100340.44;;;16.41;41.08
26487;BME280;14425;56.136;40.360;2023-05-16T05:22:44;100331.28;;;16.21;41.96
26487;BME280;14425;56.136;40.360;2023-05-16T05:25:09;100335.25;;;16.05;42.08
26487;BME280;14425;56.136;40.360;2023-05-16T05:27:35;100339.53;;;16.03;41.97
26487;BME280;14425;56.136;40.360;2023-05-16T05:30:01;100339.97;;;15.85;41.86
26487;BME280;14425;56.136;40.360;2023-05-16T05:32:29;100332.16;;;16.21;42.06
26487;BME280;14425;56.136;40.360;2023-05-16T05:34:55;100334.22;;;16.74;41.02
26487;BME280;14425;56.136;40.360;2023-05-16T05:37:20;100338.91;;;16.89;39.70
26487;BME280;14425;56.136;40.360;2023-05-16T05:39:46;100333.34;;;17.15;39.83
26487;BME280;14425;56.136;40.360;2023-05-16T05:42:11;100331.75;;;17.70;39.04
26487;BME280;14425;56.136;40.360;2023-05-16T05:44:37;100331.59;;;17.63;39.24
26487;BME280;14425;56.136;40.360;2023-05-16T05:47:04;100331.53;;;17.58;38.85
26487;BME280;14425;56.136;40.360;2023-05-16T05:49:30;100331.09;;;17.33;40.01
26487;BME280;14425;56.136;40.360;2023-05-16T05:51:56;100332.69;;;17.25;40.43
26487;BME280;14425;56.136;40.360;2023-05-16T05:54:22;100338.41;;;17.54;39.21
26487;BME280;14425;56.136;40.360;2023-05-16T05:56:47;100333.56;;;17.76;38.95
26487;BME280;14425;56.136;40.360;2023-05-16T05:59:13;100340.81;;;17.91;38.49
26487;BME280;14425;56.136;40.360;2023-05-16T06:01:39;100332.53;;;18.17;38.72
26487;BME280;14425;56.136;40.360;2023-05-16T06:04:05;100343.28;;;18.99;39.09
26487;BME280;14425;56.136;40.360;2023-05-16T06:06:31;100344.59;;;19.40;37.92
26487;BME280;14425;56.136;40.360;2023-05-16T06:08:57;100350.09;;;17.75;37.10
26487;BME280;14425;56.136;40.360;2023-05-16T06:11:23;100349.56;;;17.93;37.58
26487;BME280;14425;56.136;40.360;2023-05-16T06:13:52;100339.28;;;18.04;37.97
26487;BME280;14425;56.136;40.360;2023-05-16T06:16:18;100340.38;;;18.17;37.57
26487;BME280;14425;56.136;40.360;2023-05-16T06:18:44;100348.13;;;18.73;38.09
26487;BME280;14425;56.136;40.360;2023-05-16T06:21:09;100333.19;;;19.32;36.96
26487;BME280;14425;56.136;40.360;2023-05-16T06:23:35;100334.28;;;19.52;36.21
26487;BME280;14425;56.136;40.360;2023-05-16T06:26:02;100334.28;;;19.52;36.36
26487;BME280;14425;56.136;40.360;2023-05-16T06:28:28;100333.78;;;19.06;35.40
26487;BME280;14425;56.136;40.360;2023-05-16T06:30:53;100340.72;;;19.02;36.43
26487;BME280;14425;56.136;40.360;2023-05-16T06:33:19;100333.75;;;19.90;35.61
26487;BME280;14425;56.136;40.360;2023-05-16T06:35:45;100336.41;;;19.93;35.11
26487;BME280;14425;56.136;40.360;2023-05-16T06:38:12;100349.75;;;19.34;34.42
26487;BME280;14425;56.136;40.360;2023-05-16T06:40:37;100339.03;;;19.09;35.61
26487;BME280;14425;56.136;40.360;2023-05-16T06:43:03;100341.47;;;18.95;35.26
26487;BME280;14425;56.136;40.360;2023-05-16T06:45:28;100342.78;;;19.33;35.43
26487;BME280;14425;56.136;40.360;2023-05-16T06:47:54;100345.88;;;18.98;35.31
26487;BME280;14425;56.136;40.360;2023-05-16T06:50:21;100344.38;;;19.18;35.27
26487;BME280;14425;56.136;40.360;2023-05-16T06:52:47;100342.94;;;19.48;34.62
26487;BME280;14425;56.136;40.360;2023-05-16T06:55:12;100346.41;;;19.46;34.31
26487;BME280;14425;56.136;40.360;2023-05-16T06:57:38;100347.09;;;19.28;34.47
26487;BME280;14425;56.136;40.360;2023-05-16T07:00:05;100336.16;;;19.67;34.89
26487;BME280;14425;56.136;40.360;2023-05-16T07:02:34;100348.28;;;19.57;34.71
26487;BME280;14425;56.136;40.360;2023-05-16T07:05:00;100342.84;;;20.37;34.29
26487;BME280;14425;56.136;40.360;2023-05-16T07:07:29;100343.31;;;19.82;33.98
26487;BME280;14425;56.136;40.360;2023-05-16T07:09:54;100355.22;;;19.55;34.51
26487;BME280;14425;56.136;40.360;2023-05-16T07:12:20;100337.94;;;19.73;34.41
26487;BME280;14425;56.136;40.360;2023-05-16T07:14:46;100347.63;;;19.79;34.80
26487;BME280;14425;56.136;40.360;2023-05-16T07:17:12;100336.84;;;20.60;34.69
26487;BME280;14425;56.136;40.360;2023-05-16T07:19:37;100333.59;;;21.04;33.12
26487;BME280;14425;56.136;40.360;2023-05-16T07:22:03;100328.16;;;20.62;32.43
26487;BME280;14425;56.136;40.360;2023-05-16T07:24:29;100328.91;;;20.43;32.97
26487;BME280;14425;56.136;40.360;2023-05-16T07:26:54;100333.19;;;20.30;33.60
26487;BME280;14425;56.136;40.360;2023-05-16T07:29:20;100334.38;;;20.81;33.36
26487;BME280;14425;56.136;40.360;2023-05-16T07:31:45;100335.31;;;20.96;32.44
26487;BME280;14425;56.136;40.360;2023-05-16T07:34:11;100326.75;;;21.63;31.89
26487;BME280;14425;56.136;40.360;2023-05-16T07:36:37;100327.56;;;21.27;31.69
26487;BME280;14425;56.136;40.360;2023-05-16T07:39:03;100325.72;;;20.99;33.06
26487;BME280;14425;56.136;40.360;2023-05-16T07:41:29;100327.66;;;21.70;33.56
26487;BME280;14425;56.136;40.360;2023-05-16T07:43:55;100322.38;;;22.16;32.37
26487;BME280;14425;56.136;40.360;2023-05-16T07:46:21;100317.13;;;21.98;30.58
26487;BME280;14425;56.136;40.360;2023-05-16T07:48:46;100321.50;;;22.22;30.87
26487;BME280;14425;56.136;40.360;2023-05-16T07:51:12;100324.13;;;22.42;30.66
26487;BME280;14425;56.136;40.360;2023-05-16T07:53:38;100327.66;;;21.62;30.22
26487;BME280;14425;56.136;40.360;2023-05-16T07:56:04;100315.38;;;22.01;31.04
26487;BME280;14425;56.136;40.360;2023-05-16T07:58:31;100330.22;;;21.47;30.35
26487;BME280;14425;56.136;40.360;2023-05-16T08:00:56;100310.00;;;22.70;31.20
26487;BME280;14425;56.136;40.360;2023-05-16T08:03:22;100323.13;;;22.78;30.39
26487;BME280;14425;56.136;40.360;2023-05-16T08:05:48;100315.38;;;22.41;30.53
26487;BME280;14425;56.136;40.360;2023-05-16T08:08:14;100323.19;;;21.36;31.91
26487;BME280;14425;56.136;40.360;2023-05-16T08:10:39;100315.38;;;22.18;32.14
26487;BME280;14425;56.136;40.360;2023-05-16T08:13:05;100324.81;;;20.91;32.69
26487;BME280;14425;56.136;40.360;2023-05-16T08:15:30;100309.66;;;20.36;34.46
26487;BME280;14425;56.136;40.360;2023-05-16T08:17:57;100317.09;;;19.78;34.22
26487;BME280;14425;56.136;40.360;2023-05-16T08:20:24;100322.13;;;19.59;34.31
26487;BME280;14425;56.136;40.360;2023-05-16T08:22:50;100313.66;;;21.83;33.09
26487;BME280;14425;56.136;40.360;2023-05-16T08:25:16;100299.28;;;23.21;30.84
26487;BME280;14425;56.136;40.360;2023-05-16T08:27:44;100300.94;;;23.39;29.58
26487;BME280;14425;56.136;40.360;2023-05-16T08:30:10;100304.56;;;23.14;28.67
26487;BME280;14425;56.136;40.360;2023-05-16T08:32:36;100311.69;;;22.90;31.15
26487;BME280;14425;56.136;40.360;2023-05-16T08:35:01;100306.94;;;23.52;28.32
26487;BME280;14425;56.136;40.360;2023-05-16T08:37:29;100301.81;;;23.34;28.20
26487;BME280;14425;56.136;40.360;2023-05-16T08:39:55;100295.19;;;24.03;29.70
26487;BME280;14425;56.136;40.360;2023-05-16T08:42:20;100293.03;;;24.37;29.06
26487;BME280;14425;56.136;40.360;2023-05-16T08:44:46;100282.63;;;24.28;28.42
26487;BME280;14425;56.136;40.360;2023-05-16T08:47:17;100286.94;;;24.33;29.20
26487;BME280;14425;56.136;40.360;2023-05-16T08:49:50;100286.94;;;23.31;28.92
26487;BME280;14425;56.136;40.360;2023-05-16T08:52:18;100292.25;;;23.25;29.04
26487;BME280;14425;56.136;40.360;2023-05-16T08:54:45;100282.66;;;23.13;28.38
26487;BME280;14425;56.136;40.360;2023-05-16T08:57:12;100278.94;;;23.43;29.82
26487;BME280;14425;56.136;40.360;2023-05-16T08:59:39;100295.13;;;22.69;30.19
26487;BME280;14425;56.136;40.360;2023-05-16T09:02:05;100279.78;;;24.45;29.74
26487;BME280;14425;56.136;40.360;2023-05-16T09:04:30;100279.94;;;23.24;29.70
26487;BME280;14425;56.136;40.360;2023-05-16T09:06:56;100289.09;;;22.30;30.99
26487;BME280;14425;56.136;40.360;2023-05-16T09:09:23;100284.44;;;23.08;30.55
26487;BME280;14425;56.136;40.360;2023-05-16T09:11:49;100279.38;;;22.68;30.20
26487;BME280;14425;56.136;40.360;2023-05-16T09:14:16;100285.56;;;22.48;30.91
26487;BME280;14425;56.136;40.360;2023-05-16T09:16:44;100277.16;;;23.50;29.67
26487;BME280;14425;56.136;40.360;2023-05-16T09:19:11;100272.50;;;23.80;28.00
26487;BME280;14425;56.136;40.360;2023-05-16T09:21:38;100268.59;;;23.19;29.32
26487;BME280;14425;56.136;40.360;2023-05-16T09:24:06;100282.78;;;22.79;30.15
26487;BME280;14425;56.136;40.360;2023-05-16T09:26:33;100265.97;;;23.19;28.80
26487;BME280;14425;56.136;40.360;2023-05-16T09:28:59;100275.97;;;22.20;30.48
26487;BME280;14425;56.136;40.360;2023-05-16T09:31:27;100270.72;;;22.10;31.26
26487;BME280;14425;56.136;40.360;2023-05-16T09:33:55;100271.66;;;21.57;31.37
26487;BME280;14425;56.136;40.360;2023-05-16T09:36:22;100274.22;;;21.45;31.80
26487;BME280;14425;56.136;40.360;2023-05-16T09:38:50;100277.75;;;22.05;31.61
26487;BME280;14425;56.136;40.360;2023-05-16T09:41:15;100270.69;;;21.12;31.94
26487;BME280;14425;56.136;40.360;2023-05-16T09:43:42;100272.50;;;21.51;32.67
26487;BME280;14425;56.136;40.360;2023-05-16T09:46:13;100259.06;;;22.98;31.86
26487;BME280;14425;56.136;40.360;2023-05-16T09:48:40;100257.25;;;23.08;29.38
26487;BME280;14425;56.136;40.360;2023-05-16T09:51:06;100258.69;;;23.55;29.80
26487;BME280;14425;56.136;40.360;2023-05-16T09:53:32;100252.97;;;24.82;29.32
26487;BME280;14425;56.136;40.360;2023-05-16T09:56:06;100248.00;;;24.59;28.35
26487;BME280;14425;56.136;40.360;2023-05-16T09:58:34;100247.84;;;23.92;29.46
26487;BME280;14425;56.136;40.360;2023-05-16T10:01:00;100249.94;;;23.51;29.57
26487;BME280;14425;56.136;40.360;2023-05-16T10:03:27;100236.63;;;24.57;29.49
26487;BME280;14425;56.136;40.360;2023-05-16T10:05:53;100242.28;;;24.94;28.98
26487;BME280;14425;56.136;40.360;2023-05-16T10:08:30;100236.63;;;25.20;28.77
26487;BME280;14425;56.136;40.360;2023-05-16T10:10:57;100230.25;;;25.35;27.67
26487;BME280;14425;56.136;40.360;2023-05-16T10:13:24;100234.88;;;25.74;28.03
26487;BME280;14425;56.136;40.360;2023-05-16T10:15:54;100233.63;;;26.42;27.16
26487;BME280;14425;56.136;40.360;2023-05-16T10:18:21;100231.97;;;26.36;26.94
26487;BME280;14425;56.136;40.360;2023-05-16T10:20:48;100225.09;;;25.26;28.03
26487;BME280;14425;56.136;40.360;2023-05-16T10:23:20;100229.59;;;26.24;26.45
26487;BME280;14425;56.136;40.360;2023-05-16T10:25:48;100225.91;;;24.70;26.69
26487;BME280;14425;56.136;40.360;2023-05-16T10:28:14;100226.78;;;23.90;28.88
26487;BME280;14425;56.136;40.360;2023-05-16T10:30:42;100229.06;;;24.26;28.59
26487;BME280;14425;56.136;40.360;2023-05-16T10:33:16;100231.13;;;24.74;28.11
26487;BME280;14425;56.136;40.360;2023-05-16T10:35:43;100228.88;;;24.40;28.12
26487;BME280;14425;56.136;40.360;2023-05-16T10:38:10;100220.13;;;25.04;28.39
26487;BME280;14425;56.136;40.360;2023-05-16T10:40:38;100222.91;;;25.54;26.44
26487;BME280;14425;56.136;40.360;2023-05-16T10:43:05;100226.56;;;26.42;26.90
26487;BME280;14425;56.136;40.360;2023-05-16T10:45:33;100218.97;;;26.25;26.63
26487;BME280;14425;56.136;40.360;2023-05-16T10:48:00;100220.94;;;26.58;27.17
26487;BME280;14425;56.136;40.360;2023-05-16T10:50:32;100220.88;;;26.61;25.77
26487;BME280;14425;56.136;40.360;2023-05-16T11:06:34;100207.16;;;26.85;25.71
26487;BME280;14425;56.136;40.360;2023-05-16T11:14:34;100205.75;;;25.25;25.19
26487;BME280;14425;56.136;40.360;2023-05-16T11:17:02;100207.06;;;26.04;25.14
26487;BME280;14425;56.136;40.360;2023-05-16T11:22:12;100199.44;;;25.37;26.18
26487;BME280;14425;56.136;40.360;2023-05-16T11:27:34;100198.91;;;25.12;25.66
26487;BME280;14425;56.136;40.360;2023-05-16T11:30:11;100195.94;;;25.37;25.18
26487;BME280;14425;56.136;40.360;2023-05-16T11:32:39;100203.72;;;25.93;25.18
26487;BME280;14425;56.136;40.360;2023-05-16T11:35:07;100197.56;;;26.37;24.01
26487;BME280;14425;56.136;40.360;2023-05-16T11:37:34;100194.03;;;26.39;24.84
26487;BME280;14425;56.136;40.360;2023-05-16T11:40:07;100197.97;;;24.52;25.26
26487;BME280;14425;56.136;40.360;2023-05-16T11:42:36;100196.72;;;24.83;25.38
26487;BME280;14425;56.136;40.360;2023-05-16T11:45:06;100196.91;;;24.69;26.34
26487;BME280;14425;56.136;40.360;2023-05-16T11:47:34;100201.56;;;24.45;26.00
26487;BME280;14425;56.136;40.360;2023-05-16T11:50:05;100197.84;;;23.87;26.65
26487;BME280;14425;56.136;40.360;2023-05-16T11:52:32;100183.72;;;23.97;26.82
26487;BME280;14425;56.136;40.360;2023-05-16T11:54:57;100185.66;;;23.74;27.68
26487;BME280;14425;56.136;40.360;2023-05-16T11:57:26;100190.19;;;25.08;26.70
26487;BME280;14425;56.136;40.360;2023-05-16T11:59:52;100194.84;;;24.21;27.10
26487;BME280;14425;56.136;40.360;2023-05-16T12:02:17;100192.19;;;24.24;26.89
26487;BME280;14425;56.136;40.360;2023-05-16T12:04:46;100182.94;;;24.64;26.77
26487;BME280;14425;56.136;40.360;2023-05-16T12:07:14;100185.28;;;24.82;26.44
26487;BME280;14425;56.136;40.360;2023-05-16T12:09:40;100188.25;;;24.59;26.63
26487;BME280;14425;56.136;40.360;2023-05-16T12:12:06;100184.25;;;24.93;26.94
26487;BME280;14425;56.136;40.360;2023-05-16T12:14:32;100181.09;;;25.25;26.01
26487;BME280;14425;56.136;40.360;2023-05-16T12:16:57;100174.81;;;25.35;26.27
26487;BME280;14425;56.136;40.360;2023-05-16T12:19:23;100169.78;;;25.17;27.00
26487;BME280;14425;56.136;40.360;2023-05-16T12:21:52;100178.75;;;25.06;25.84
26487;BME280;14425;56.136;40.360;2023-05-16T12:24:18;100173.41;;;25.66;25.48
26487;BME280;14425;56.136;40.360;2023-05-16T12:26:44;100169.13;;;26.49;25.47
26487;BME280;14425;56.136;40.360;2023-05-16T12:29:10;100172.94;;;25.43;25.80
26487;BME280;14425;56.136;40.360;2023-05-16T12:31:38;100163.16;;;26.39;24.95
26487;BME280;14425;56.136;40.360;2023-05-16T12:34:13;100162.03;;;25.09;25.53
26487;BME280;14425;56.136;40.360;2023-05-16T12:36:39;100170.81;;;25.62;25.28
26487;BME280;14425;56.136;40.360;2023-05-16T12:39:06;100149.94;;;25.98;25.29
26487;BME280;14425;56.136;40.360;2023-05-16T12:41:32;100155.38;;;25.39;26.08
26487;BME280;14425;56.136;40.360;2023-05-16T12:44:16;100157.19;;;25.37;24.99
26487;BME280;14425;56.136;40.360;2023-05-16T12:46:49;100155.88;;;25.08;26.25
26487;BME280;14425;56.136;40.360;2023-05-16T12:49:19;100164.28;;;24.08;26.97
26487;BME280;14425;56.136;40.360;2023-05-16T12:51:50;100154.47;;;23.29;28.80
26487;BME280;14425;56.136;40.360;2023-05-16T12:54:16;100154.81;;;23.88;28.44
26487;BME280;14425;56.136;40.360;2023-05-16T12:56:42;100152.69;;;24.21;28.59
26487;BME280;14425;56.136;40.360;2023-05-16T12:59:09;100146.06;;;24.59;28.40
26487;BME280;14425;56.136;40.360;2023-05-16T13:01:37;100143.16;;;25.35;28.63
26487;BME280;14425;56.136;40.360;2023-05-16T13:04:04;100137.38;;;24.51;27.66
26487;BME280;14425;56.136;40.360;2023-05-16T13:06:31;100132.94;;;24.51;28.36
26487;BME280;14425;56.136;40.360;2023-05-16T13:08:57;100136.34;;;23.93;27.28